sensor_id;sensor_type;location;lat;lon;timestamp;temperature;humidity
61255;DHT22;47128;47.530;8.584;2023-04-15T18:58:46;9.40;99.90
61255;DHT22;47128;47.530;8.584;2023-04-15T19:01:11;9.40;99.90
61255;DHT22;47128;47.530;8.584;2023-04-15T19:03:37;9.50;99.90
61255;DHT22;47128;47.530;8.584;2023-04-15T19:06:03;9.40;99.90
61255;DHT22;47128;47.530;8.584;2023-04-15T19:08:29;9.30;99.90
61255;DHT22;47128;47.530;8.584;2023-04-15T19:10:55;9.30;99.90
61255;DHT22;47128;47.530;8.584;2023-04-15T19:13:21;9.30;99.90
61255;DHT22;47128;47.530;8.584;2023-04-15T19:15:47;9.30;99.90
61255;DHT22;47128;47.530;8.584;2023-04-15T19:18:13;9.30;99.90
61255;DHT22;47128;47.530;8.584;2023-04-15T19:20:38;9.30;99.90
61255;DHT22;47128;47.530;8.584;2023-04-15T19:23:05;9.30;99.90
61255;DHT22;47128;47.530;8.584;2023-04-15T19:25:31;9.30;99.90
61255;DHT22;47128;47.530;8.584;2023-04-15T19:27:56;9.40;99.90
61255;DHT22;47128;47.530;8.584;2023-04-15T19:30:22;9.40;99.90
61255;DHT22;47128;47.530;8.584;2023-04-15T19:32:47;9.30;99.90
61255;DHT22;47128;47.530;8.584;2023-04-15T19:35:13;9.10;99.90
61255;DHT22;47128;47.530;8.584;2023-04-15T19:37:39;9.10;99.90
61255;DHT22;47128;47.530;8.584;2023-04-15T19:40:04;9.10;99.90
61255;DHT22;47128;47.530;8.584;2023-04-15T19:42:30;9.10;99.90
61255;DHT22;47128;47.530;8.584;2023-04-15T19:44:56;8.90;99.90
61255;DHT22;47128;47.530;8.584;2023-04-15T19:47:22;8.90;99.90
61255;DHT22;47128;47.530;8.584;2023-04-15T19:49:48;8.90;99.90
61255;DHT22;47128;47.530;8.584;2023-04-15T19:52:15;8.80;99.90
61255;DHT22;47128;47.530;8.584;2023-04-15T19:54:40;8.80;99.90
61255;DHT22;47128;47.530;8.584;2023-04-15T19:57:06;8.90;99.90
61255;DHT22;47128;47.530;8.584;2023-04-15T19:59:32;9.00;99.90
61255;DHT22;47128;47.530;8.584;2023-04-15T20:01:57;8.90;99.90
61255;DHT22;47128;47.530;8.584;2023-04-15T20:04:23;8.90;99.90
61255;DHT22;47128;47.530;8.584;2023-04-15T20:06:49;8.90;99.90
61255;DHT22;47128;47.530;8.584;2023-04-15T20:09:14;8.80;99.90
61255;DHT22;47128;47.530;8.584;2023-04-15T20:11:40;8.70;99.90
61255;DHT22;47128;47.530;8.584;2023-04-15T20:14:06;8.70;99.90
61255;DHT22;47128;47.530;8.584;2023-04-15T20:16:33;8.80;99.90
61255;DHT22;47128;47.530;8.584;2023-04-15T20:18:59;8.80;99.90
61255;DHT22;47128;47.530;8.584;2023-04-15T20:21:31;8.80;99.90
61255;DHT22;47128;47.530;8.584;2023-04-15T20:23:56;8.70;99.90
61255;DHT22;47128;47.530;8.584;2023-04-15T20:26:22;8.70;99.90
61255;DHT22;47128;47.530;8.584;2023-04-15T20:28:49;8.70;99.90
61255;DHT22;47128;47.530;8.584;2023-04-15T20:31:15;8.70;99.90
61255;DHT22;47128;47.530;8.584;2023-04-15T20:33:41;8.70;99.90
61255;DHT22;47128;47.530;8.584;2023-04-15T20:36:06;8.70;99.90
61255;DHT22;47128;47.530;8.584;2023-04-15T20:38:32;8.80;99.90
61255;DHT22;47128;47.530;8.584;2023-04-15T20:40:58;8.80;99.90
61255;DHT22;47128;47.530;8.584;2023-04-15T20:43:23;8.80;99.90
61255;DHT22;47128;47.530;8.584;2023-04-15T20:45:50;8.80;99.90
61255;DHT22;47128;47.530;8.584;2023-04-15T20:48:18;8.80;99.90
61255;DHT22;47128;47.530;8.584;2023-04-15T20:50:43;8.80;99.90
61255;DHT22;47128;47.530;8.584;2023-04-15T20:53:09;8.90;99.90
61255;DHT22;47128;47.530;8.584;2023-04-15T20:55:35;8.90;99.90
61255;DHT22;47128;47.530;8.584;2023-04-15T20:58:00;9.00;99.90
61255;DHT22;47128;47.530;8.584;2023-04-15T21:00:26;8.90;99.90
61255;DHT22;47128;47.530;8.584;2023-04-15T21:02:51;9.00;99.90
61255;DHT22;47128;47.530;8.584;2023-04-15T21:05:17;8.90;99.90
61255;DHT22;47128;47.530;8.584;2023-04-15T21:07:43;8.90;99.90
61255;DHT22;47128;47.530;8.584;2023-04-15T21:10:08;8.90;99.90
61255;DHT22;47128;47.530;8.584;2023-04-15T21:12:34;8.80;99.90
61255;DHT22;47128;47.530;8.584;2023-04-15T21:15:02;8.70;99.90
61255;DHT22;47128;47.530;8.584;2023-04-15T21:17:27;8.60;99.90
61255;DHT22;47128;47.530;8.584;2023-04-15T21:19:53;8.70;99.90
61255;DHT22;47128;47.530;8.584;2023-04-15T21:22:18;8.80;99.90
61255;DHT22;47128;47.530;8.584;2023-04-15T21:24:44;8.80;99.90
61255;DHT22;47128;47.530;8.584;2023-04-15T21:27:09;8.90;99.90
61255;DHT22;47128;47.530;8.584;2023-04-15T21:29:35;8.90;99.90
61255;DHT22;47128;47.530;8.584;2023-04-15T21:32:04;9.00;99.90
61255;DHT22;47128;47.530;8.584;2023-04-15T21:34:30;8.90;99.90
61255;DHT22;47128;47.530;8.584;2023-04-15T21:36:56;8.90;99.90
61255;DHT22;47128;47.530;8.584;2023-04-15T21:39:21;8.90;99.90
61255;DHT22;47128;47.530;8.584;2023-04-15T21:41:47;8.90;99.90
61255;DHT22;47128;47.530;8.584;2023-04-15T21:44:13;8.80;99.90
61255;DHT22;47128;47.530;8.584;2023-04-15T21:46:38;8.80;99.90
61255;DHT22;47128;47.530;8.584;2023-04-15T21:49:04;8.70;99.90
61255;DHT22;47128;47.530;8.584;2023-04-15T21:51:31;8.70;99.90
61255;DHT22;47128;47.530;8.584;2023-04-15T21:53:57;8.60;99.90
61255;DHT22;47128;47.530;8.584;2023-04-15T21:56:23;8.60;99.90
61255;DHT22;47128;47.530;8.584;2023-04-15T21:58:49;8.60;99.90
61255;DHT22;47128;47.530;8.584;2023-04-15T22:01:15;8.60;99.90
61255;DHT22;47128;47.530;8.584;2023-04-15T22:03:41;8.50;99.90
61255;DHT22;47128;47.530;8.584;2023-04-15T22:06:06;8.60;99.90
61255;DHT22;47128;47.530;8.584;2023-04-15T22:08:32;8.50;99.90
61255;DHT22;47128;47.530;8.584;2023-04-15T22:10:58;8.60;99.90
61255;DHT22;47128;47.530;8.584;2023-04-15T22:13:24;8.60;99.90
61255;DHT22;47128;47.530;8.584;2023-04-15T22:15:49;8.60;99.90
61255;DHT22;47128;47.530;8.584;2023-04-15T22:18:15;8.60;99.90
61255;DHT22;47128;47.530;8.584;2023-04-15T22:20:41;8.60;99.90
61255;DHT22;47128;47.530;8.584;2023-04-15T22:23:06;8.50;99.90
61255;DHT22;47128;47.530;8.584;2023-04-15T22:25:33;8.40;99.90
61255;DHT22;47128;47.530;8.584;2023-04-15T22:27:59;8.40;99.90
61255;DHT22;47128;47.530;8.584;2023-04-15T22:30:25;8.30;99.90
61255;DHT22;47128;47.530;8.584;2023-04-15T22:32:50;8.40;99.90
61255;DHT22;47128;47.530;8.584;2023-04-15T22:35:16;8.30;99.90
61255;DHT22;47128;47.530;8.584;2023-04-15T22:37:42;8.40;99.90
61255;DHT22;47128;47.530;8.584;2023-04-15T22:40:07;8.40;99.90
61255;DHT22;47128;47.530;8.584;2023-04-15T22:42:33;8.40;99.90
61255;DHT22;47128;47.530;8.584;2023-04-15T22:44:59;8.30;99.90
61255;DHT22;47128;47.530;8.584;2023-04-15T22:47:24;8.40;99.90
61255;DHT22;47128;47.530;8.584;2023-04-15T22:49:50;8.30;99.90
61255;DHT22;47128;47.530;8.584;2023-04-15T22:52:16;8.30;99.90
61255;DHT22;47128;47.530;8.584;2023-04-15T22:54:42;8.30;99.90
61255;DHT22;47128;47.530;8.584;2023-04-15T22:57:07;8.40;99.90
61255;DHT22;47128;47.530;8.584;2023-04-15T22:59:33;8.30;99.90
61255;DHT22;47128;47.530;8.584;2023-04-15T23:01:58;8.30;99.90
61255;DHT22;47128;47.530;8.584;2023-04-15T23:04:24;8.30;99.90
61255;DHT22;47128;47.530;8.584;2023-04-15T23:06:50;8.40;99.90
61255;DHT22;47128;47.530;8.584;2023-04-15T23:09:16;8.40;99.90
61255;DHT22;47128;47.530;8.584;2023-04-15T23:11:42;8.40;99.90
61255;DHT22;47128;47.530;8.584;2023-04-15T23:14:07;8.40;99.90
61255;DHT22;47128;47.530;8.584;2023-04-15T23:16:33;8.40;99.90
61255;DHT22;47128;47.530;8.584;2023-04-15T23:18:59;8.30;99.90
61255;DHT22;47128;47.530;8.584;2023-04-15T23:21:24;8.30;99.90
61255;DHT22;47128;47.530;8.584;2023-04-15T23:23:51;8.30;99.90
61255;DHT22;47128;47.530;8.584;2023-04-15T23:26:17;8.30;99.90
61255;DHT22;47128;47.530;8.584;2023-04-15T23:28:42;8.30;99.90
61255;DHT22;47128;47.530;8.584;2023-04-15T23:31:08;8.30;99.90
61255;DHT22;47128;47.530;8.584;2023-04-15T23:33:33;8.30;99.90
61255;DHT22;47128;47.530;8.584;2023-04-15T23:35:59;8.30;99.90
61255;DHT22;47128;47.530;8.584;2023-04-15T23:38:25;8.20;99.90
61255;DHT22;47128;47.530;8.584;2023-04-15T23:40:50;8.30;99.90
61255;DHT22;47128;47.530;8.584;2023-04-15T23:43:16;8.30;99.90
61255;DHT22;47128;47.530;8.584;2023-04-15T23:45:41;8.20;99.90
61255;DHT22;47128;47.530;8.584;2023-04-15T23:48:09;8.30;99.90
61255;DHT22;47128;47.530;8.584;2023-04-15T23:50:35;8.30;99.90
61255;DHT22;47128;47.530;8.584;2023-04-15T23:55:42;8.40;99.90
61255;DHT22;47128;47.530;8.584;2023-04-15T23:58:08;8.30;99.90
